Time;durP1;ratioP1;P1;durP2;ratioP2;P2;SDS_P1;SDS_P2;PMS_P1;PMS_P2;Temp;Humidity;BMP_temperature;BMP_pressure;BME280_temperature;BME280_humidity;BME280_pressure;Samples;Min_cycle;Max_cycle;Signal;HPM_P1;HPM_P2
2022/09/23 00:00:29;;;;;;;12.48;6.03;;;;;;;7.55;100.00;97897.88;5098346;27;20026;-79
2022/09/23 00:02:55;;;;;;;9.70;5.95;;;;;;;7.48;100.00;97907.06;5098168;27;20046;-78
2022/09/23 00:05:20;;;;;;;10.90;6.15;;;;;;;7.39;100.00;97902.16;5098439;27;20106;-77
2022/09/23 00:07:47;;;;;;;14.75;5.85;;;;;;;7.33;100.00;97913.06;5115622;27;20087;-77
2022/09/23 00:10:13;;;;;;;10.23;5.82;;;;;;;7.33;100.00;97905.94;5108757;27;20061;-77
2022/09/23 00:12:39;;;;;;;15.27;6.68;;;;;;;7.30;100.00;97915.84;5098458;27;20486;-77
2022/09/23 00:15:05;;;;;;;12.20;7.05;;;;;;;7.36;100.00;97928.88;5098169;27;20058;-78
2022/09/23 00:17:30;;;;;;;11.68;6.15;;;;;;;7.34;100.00;97918.34;5114979;27;20038;-77
2022/09/23 00:19:56;;;;;;;9.25;5.85;;;;;;;7.30;100.00;97903.41;5114702;27;20039;-77
2022/09/23 00:22:21;;;;;;;9.73;5.55;;;;;;;7.16;100.00;97891.66;5097974;27;20054;-77
2022/09/23 00:24:47;;;;;;;8.27;5.68;;;;;;;7.05;100.00;97884.13;5114988;27;20043;-77
2022/09/23 00:27:13;;;;;;;9.60;5.47;;;;;;;6.95;100.00;97878.31;5114698;27;20034;-77
2022/09/23 00:29:38;;;;;;;11.63;5.50;;;;;;;6.90;100.00;97882.09;5098037;27;20035;-78
2022/09/23 00:32:04;;;;;;;10.88;6.28;;;;;;;6.89;100.00;97891.88;5114681;27;20034;-77
2022/09/23 00:34:30;;;;;;;11.32;5.78;;;;;;;6.96;100.00;97901.34;5114944;27;20023;-77
2022/09/23 00:37:00;;;;;;;10.38;6.03;;;;;;;6.95;100.00;97906.72;5097808;27;20421;-77
2022/09/23 00:39:25;;;;;;;10.60;5.30;;;;;;;6.88;100.00;97899.94;5097995;27;20070;-78
2022/09/23 00:41:57;;;;;;;9.00;5.45;;;;;;;6.85;100.00;97892.06;5097376;27;20059;-78
2022/09/23 00:44:51;;;;;;;8.63;5.45;;;;;;;6.82;100.00;97897.53;5114709;27;20232;-78
2022/09/23 00:47:47;;;;;;;10.18;5.80;;;;;;;6.71;100.00;97907.72;5107909;27;20027;-78
2022/09/23 00:50:24;;;;;;;9.95;5.45;;;;;;;6.63;100.00;97908.03;5114743;27;20060;-78
2022/09/23 00:52:52;;;;;;;8.13;5.45;;;;;;;6.58;100.00;97920.66;5131355;27;20034;-78
2022/09/23 00:55:26;;;;;;;8.90;5.55;;;;;;;6.60;100.00;97924.13;5114460;27;20407;-78
2022/09/23 00:57:55;;;;;;;10.25;5.25;;;;;;;6.59;100.00;97926.81;5097215;27;20478;-78
2022/09/23 01:00:22;;;;;;;10.85;5.45;;;;;;;6.68;100.00;97929.97;5114294;27;20482;-77
2022/09/23 01:02:47;;;;;;;10.65;6.00;;;;;;;6.57;100.00;97921.56;5113988;27;20027;-78
2022/09/23 01:05:13;;;;;;;8.70;5.28;;;;;;;6.71;100.00;97935.16;5107665;27;20022;-77
2022/09/23 01:07:39;;;;;;;9.15;5.47;;;;;;;6.48;100.00;97898.03;5097204;27;20033;-78
2022/09/23 01:10:05;;;;;;;8.55;5.43;;;;;;;6.38;100.00;97899.31;5114164;27;20026;-77
2022/09/23 01:12:31;;;;;;;8.80;5.00;;;;;;;6.51;100.00;97932.47;5096988;27;20580;-76
2022/09/23 01:15:42;;;;;;;8.43;5.45;;;;;;;6.49;100.00;97931.66;5131014;27;20106;-76
2022/09/23 01:18:31;;;;;;;7.20;4.75;;;;;;;6.26;100.00;97913.94;5090436;27;20058;-77
2022/09/23 01:21:34;;;;;;;8.02;5.30;;;;;;;6.14;100.00;97932.16;5113739;28;20042;-77
2022/09/23 01:24:43;;;;;;;9.85;5.72;;;;;;;6.09;100.00;97945.59;5113706;27;20469;-78
2022/09/23 01:27:22;;;;;;;11.30;5.53;;;;;;;6.19;100.00;97954.94;5104662;27;20030;-77
2022/09/23 01:29:48;;;;;;;10.25;6.18;;;;;;;6.19;100.00;97962.03;5096644;27;20489;-77
2022/09/23 01:32:21;;;;;;;12.30;6.20;;;;;;;6.08;100.00;97953.63;5130496;27;20100;-76
2022/09/23 01:34:48;;;;;;;10.57;6.03;;;;;;;6.23;100.00;97975.16;5107054;28;20031;-77
2022/09/23 01:37:25;;;;;;;11.95;6.75;;;;;;;6.35;100.00;97984.44;5147258;27;20026;-77
2022/09/23 01:40:00;;;;;;;12.77;6.93;;;;;;;6.36;100.00;97978.22;5096480;28;20019;-78
2022/09/23 01:42:35;;;;;;;12.27;6.60;;;;;;;6.42;100.00;97976.19;5097071;27;20019;-77
2022/09/23 01:45:21;;;;;;;14.45;7.82;;;;;;;6.49;100.00;97982.16;5113450;28;20115;-77
2022/09/23 01:47:51;;;;;;;15.73;8.70;;;;;;;6.49;100.00;97974.19;5096873;28;20034;-77
2022/09/23 01:53:11;;;;;;;15.02;7.15;;;;;;;6.37;100.00;97967.53;5116454;28;20466;-77
2022/09/23 01:55:41;;;;;;;11.88;7.47;;;;;;;6.31;100.00;97966.88;5096451;28;20042;-77
2022/09/23 01:58:29;;;;;;;11.75;7.05;;;;;;;6.25;100.00;97972.44;5115778;27;20563;-77
2022/09/23 02:00:59;;;;;;;10.70;6.57;;;;;;;6.10;100.00;97965.03;5105014;27;20118;-78
2022/09/23 02:03:30;;;;;;;12.48;6.22;;;;;;;6.07;100.00;97967.81;5100951;27;20027;-77
2022/09/23 02:06:08;;;;;;;9.68;6.55;;;;;;;6.03;100.00;97955.59;5100954;27;20666;-77
2022/09/23 02:08:43;;;;;;;10.90;5.68;;;;;;;6.00;100.00;97962.72;5119691;27;20547;-77
2022/09/23 02:11:10;;;;;;;10.15;6.43;;;;;;;6.02;100.00;97961.81;5118859;27;20171;-77
2022/09/23 02:13:59;;;;;;;9.65;5.80;;;;;;;5.96;100.00;97961.13;5100792;27;20035;-77
2022/09/23 02:16:32;;;;;;;10.65;5.78;;;;;;;5.89;100.00;97961.41;5117734;27;20015;-77
2022/09/23 02:19:03;;;;;;;9.13;5.63;;;;;;;5.84;100.00;97961.56;5100288;27;20081;-78
2022/09/23 02:21:33;;;;;;;11.73;6.13;;;;;;;5.81;100.00;97959.00;5134417;27;20027;-77
2022/09/23 02:24:29;;;;;;;12.00;6.22;;;;;;;5.70;100.00;97950.56;5117156;27;20289;-78
2022/09/23 02:27:23;;;;;;;10.82;6.18;;;;;;;5.79;100.00;97971.47;5074316;27;20039;-77
2022/09/23 02:30:08;;;;;;;9.30;5.72;;;;;;;5.72;100.00;97969.09;5109256;28;20019;-78
2022/09/23 02:33:03;;;;;;;12.10;6.45;;;;;;;5.80;100.00;97985.59;5110315;27;20027;-77
2022/09/23 02:35:42;;;;;;;17.05;5.85;;;;;;;5.84;100.00;97992.53;5117190;27;20019;-78
2022/09/23 02:38:20;;;;;;;13.23;7.03;;;;;;;5.69;100.00;97971.84;5100237;27;20053;-78
2022/09/23 02:40:52;;;;;;;12.57;6.47;;;;;;;5.74;100.00;97991.13;5116744;27;20421;-78
2022/09/23 02:43:32;;;;;;;14.75;6.63;;;;;;;5.77;100.00;97998.97;5116571;27;20027;-78
2022/09/23 02:45:58;;;;;;;10.13;6.28;;;;;;;5.87;100.00;98009.25;5100559;27;20037;-78
2022/09/23 02:48:42;;;;;;;10.00;6.35;;;;;;;5.83;100.00;97991.66;5099599;27;20126;-78
2022/09/23 02:51:08;;;;;;;12.68;6.20;;;;;;;5.78;100.00;97990.09;5116548;27;20026;-78
2022/09/23 02:53:34;;;;;;;10.93;6.10;;;;;;;5.82;100.00;97984.63;5116779;27;20482;-78
2022/09/23 02:56:00;;;;;;;10.88;5.78;;;;;;;5.85;100.00;97989.84;5115994;27;20038;-78
2022/09/23 02:58:36;;;;;;;16.02;8.65;;;;;;;5.79;100.00;97978.53;5098774;27;20027;-79
2022/09/23 03:01:20;;;;;;;15.73;8.30;;;;;;;5.75;100.00;97991.06;5096987;27;20043;-79
2022/09/23 03:04:15;;;;;;;15.70;7.63;;;;;;;5.81;100.00;97998.84;5115839;27;20803;-79
2022/09/23 03:07:05;;;;;;;10.48;6.18;;;;;;;5.72;100.00;97995.63;5067490;27;20490;-79
2022/09/23 03:09:53;;;;;;;10.93;7.05;;;;;;;5.80;100.00;98010.34;5115395;27;20497;-78
2022/09/23 03:12:46;;;;;;;14.18;6.88;;;;;;;5.85;100.00;98019.03;5115938;27;20027;-79
2022/09/23 03:15:18;;;;;;;12.90;7.03;;;;;;;5.82;100.00;98005.84;5116453;27;20118;-78
2022/09/23 03:18:13;;;;;;;14.85;7.55;;;;;;;5.82;100.00;98015.59;5134495;27;20027;-78
2022/09/23 03:20:51;;;;;;;14.38;7.95;;;;;;;5.77;100.00;98014.91;5115913;27;20038;-78
2022/09/23 03:23:24;;;;;;;22.40;10.98;;;;;;;5.63;100.00;98004.75;5116199;27;20067;-78
2022/09/23 03:25:52;;;;;;;18.45;9.98;;;;;;;5.62;100.00;98013.66;5116720;27;20496;-78
2022/09/23 03:28:20;;;;;;;18.23;9.82;;;;;;;5.60;100.00;98012.81;5099291;27;20038;-78
2022/09/23 03:30:50;;;;;;;17.80;9.50;;;;;;;5.65;100.00;98013.56;5098853;27;20017;-78
2022/09/23 03:33:17;;;;;;;16.08;8.68;;;;;;;5.71;100.00;98025.75;5099021;27;20031;-78
2022/09/23 03:38:58;;;;;;;15.88;8.52;;;;;;;5.61;100.00;98030.50;5134745;27;20533;-78
2022/09/23 03:41:28;;;;;;;19.95;7.95;;;;;;;5.65;100.00;98039.22;5095387;27;20095;-79
2022/09/23 03:43:57;;;;;;;14.80;8.07;;;;;;;5.63;100.00;98043.72;5098741;27;20110;-78
2022/09/23 03:46:27;;;;;;;20.40;8.57;;;;;;;5.54;100.00;98030.78;5111658;27;20168;-78
2022/09/23 03:48:58;;;;;;;19.33;9.45;;;;;;;5.53;100.00;98029.91;5098775;27;20019;-78
2022/09/23 03:51:24;;;;;;;17.43;8.73;;;;;;;5.56;100.00;98040.41;5098443;27;20019;-78
2022/09/23 03:53:50;;;;;;;16.15;7.68;;;;;;;5.72;100.00;98052.19;5098437;27;20023;-78
2022/09/23 03:56:15;;;;;;;11.63;6.95;;;;;;;5.69;100.00;98046.16;5115280;27;20183;-78
2022/09/23 03:58:42;;;;;;;16.02;7.45;;;;;;;5.75;100.00;98052.09;5098405;27;20319;-78
2022/09/23 04:01:08;;;;;;;13.07;7.35;;;;;;;5.63;100.00;98033.94;5115483;27;20023;-78
2022/09/23 04:03:34;;;;;;;16.77;7.90;;;;;;;5.55;100.00;98028.06;5115184;27;20068;-78
2022/09/23 04:05:59;;;;;;;13.95;7.75;;;;;;;5.45;100.00;98027.50;5098405;27;20042;-78
2022/09/23 04:08:26;;;;;;;20.77;9.20;;;;;;;5.51;100.00;98037.03;5085607;27;20027;-79
2022/09/23 04:10:51;;;;;;;18.17;8.48;;;;;;;5.44;100.00;98035.53;5098254;27;20017;-79
2022/09/23 04:13:17;;;;;;;15.18;8.18;;;;;;;5.47;100.00;98046.88;5098173;27;20039;-77
2022/09/23 04:15:42;;;;;;;19.75;7.88;;;;;;;5.50;100.00;98045.06;5115251;27;20019;-78
2022/09/23 04:18:08;;;;;;;17.38;8.38;;;;;;;5.60;100.00;98057.09;5098040;27;20023;-79
2022/09/23 04:20:33;;;;;;;23.70;9.05;;;;;;;5.66;100.00;98063.03;5097070;28;20022;-79
2022/09/23 04:22:59;;;;;;;20.30;8.43;;;;;;;5.54;100.00;98050.19;5098693;27;20065;-77
2022/09/23 04:25:25;;;;;;;24.63;8.00;;;;;;;5.46;100.00;98044.28;5097927;27;20413;-78
2022/09/23 04:27:50;;;;;;;14.45;8.57;;;;;;;5.26;100.00;98020.22;5114968;27;20110;-75
2022/09/23 04:30:17;;;;;;;16.50;6.78;;;;;;;5.20;100.00;98009.81;5097900;27;20470;-77
2022/09/23 04:32:43;;;;;;;10.75;6.78;;;;;;;5.20;100.00;98007.16;5098199;27;20023;-76
2022/09/23 04:35:08;;;;;;;16.02;6.68;;;;;;;5.14;100.00;98002.91;5114851;27;20023;-77
2022/09/23 04:37:34;;;;;;;19.25;6.30;;;;;;;5.14;100.00;98004.69;5114609;27;20031;-75
2022/09/23 04:39:59;;;;;;;15.85;6.90;;;;;;;4.93;100.00;97996.53;5097729;27;20035;-76
2022/09/23 04:42:28;;;;;;;24.17;9.40;;;;;;;5.01;100.00;98025.47;5114591;27;20027;-76
2022/09/23 04:44:54;;;;;;;25.80;8.48;;;;;;;5.02;100.00;98023.66;5098035;27;20031;-77
2022/09/23 04:47:19;;;;;;;22.67;7.93;;;;;;;4.92;100.00;98025.75;5113416;27;20034;-76
2022/09/23 04:49:45;;;;;;;16.83;6.82;;;;;;;5.00;100.00;98038.75;5116984;27;20035;-76
2022/09/23 04:52:10;;;;;;;9.88;5.72;;;;;;;4.73;100.00;98014.88;5134599;27;20047;-77
2022/09/23 04:54:39;;;;;;;22.35;8.52;;;;;;;4.74;100.00;98034.25;5115575;27;20053;-78
2022/09/23 04:57:05;;;;;;;14.70;7.10;;;;;;;4.75;100.00;98044.81;5098096;27;20027;-76
2022/09/23 04:59:30;;;;;;;14.38;6.60;;;;;;;4.84;100.00;98060.44;5097352;27;20146;-79
2022/09/23 05:01:56;;;;;;;20.83;7.50;;;;;;;4.88;100.00;98061.22;5098353;27;20088;-80
2022/09/23 05:05:19;;;;;;;19.63;8.50;;;;;;;5.14;100.00;98101.00;5115083;27;20031;-79
2022/09/23 05:07:48;;;;;;;29.77;15.98;;;;;;;5.24;100.00;98091.00;5131730;27;20019;-79
2022/09/23 05:10:14;;;;;;;21.65;11.68;;;;;;;5.61;100.00;98122.50;5114797;27;20023;-81
2022/09/23 05:12:40;;;;;;;16.50;9.55;;;;;;;5.98;100.00;98139.81;5114437;27;20019;-80
2022/09/23 05:15:06;;;;;;;15.32;8.32;;;;;;;6.44;100.00;98154.16;5097771;27;20422;-80
2022/09/23 05:17:31;;;;;;;18.30;8.35;;;;;;;8.01;100.00;98230.53;5097426;27;20034;-80
2022/09/23 05:19:58;;;;;;;20.15;8.15;;;;;;;9.75;100.00;98189.84;5097412;27;20053;-81
2022/09/23 05:22:28;;;;;;;18.08;8.30;;;;;;;11.36;93.25;98124.28;5097599;27;20084;-81
2022/09/23 05:24:53;;;;;;;23.42;9.00;;;;;;;12.35;80.84;98041.63;5114015;27;20051;-80
2022/09/23 05:27:19;;;;;;;20.23;8.32;;;;;;;12.99;75.90;98005.34;5114246;27;20105;-80
2022/09/23 05:29:46;;;;;;;17.23;7.85;;;;;;;14.01;71.12;98002.13;5114370;27;20023;-80
2022/09/23 05:32:12;;;;;;;17.58;7.80;;;;;;;15.00;66.15;97953.78;5113833;27;20137;-79
2022/09/23 05:34:38;;;;;;;14.32;7.93;;;;;;;15.97;62.16;97915.84;5097238;27;20091;-82
2022/09/23 05:37:04;;;;;;;19.40;8.52;;;;;;;16.22;58.59;97861.69;5097554;27;20027;-79
2022/09/23 05:39:29;;;;;;;17.38;7.60;;;;;;;16.47;57.94;97847.06;5114293;27;20023;-80
2022/09/23 05:41:55;;;;;;;18.77;9.52;;;;;;;16.78;57.58;97835.50;5098000;28;20027;-81
2022/09/23 05:44:21;;;;;;;17.63;7.90;;;;;;;17.48;54.87;97825.06;5097135;27;20027;-80
2022/09/23 05:46:49;;;;;;;18.33;9.43;;;;;;;17.85;53.18;97793.88;5113977;28;20023;-79
2022/09/23 05:49:15;;;;;;;18.83;8.60;;;;;;;18.69;50.79;97771.00;5097381;28;20482;-80
2022/09/23 05:51:40;;;;;;;12.85;8.25;;;;;;;19.25;49.88;97760.34;5097302;28;20031;-80
2022/09/23 05:54:07;;;;;;;18.27;8.93;;;;;;;19.78;48.11;97736.25;5097581;28;20015;-80
2022/09/23 05:56:33;;;;;;;21.65;7.82;;;;;;;20.26;47.17;97735.25;5097349;28;20015;-80
2022/09/23 05:59:00;;;;;;;13.27;7.97;;;;;;;19.50;48.14;97698.34;5113854;28;20027;-80
2022/09/23 06:01:30;;;;;;;24.63;11.10;;;;;;;19.54;48.42;97700.59;5113976;28;20450;-81
2022/09/23 06:03:57;;;;;;;15.25;8.70;;;;;;;20.13;47.18;97696.66;5097421;28;20019;-80
2022/09/23 06:06:35;;;;;;;21.02;9.90;;;;;;;20.86;46.01;97692.94;5114060;28;20011;-80
2022/09/23 06:09:02;;;;;;;19.73;10.52;;;;;;;21.43;44.30;97695.19;5096865;28;20058;-81
2022/09/23 06:11:32;;;;;;;15.82;9.13;;;;;;;21.20;43.84;97672.19;5096862;28;20034;-79
2022/09/23 06:14:01;;;;;;;14.55;9.65;;;;;;;21.32;43.92;97675.53;5113591;28;20058;-80
2022/09/23 06:16:29;;;;;;;17.08;9.68;;;;;;;21.92;42.59;97669.13;5114425;28;20410;-79
2022/09/23 06:18:59;;;;;;;19.25;10.02;;;;;;;21.87;42.73;97654.28;5113707;28;20115;-80
2022/09/23 06:21:25;;;;;;;20.95;11.23;;;;;;;21.41;43.15;97652.81;5097257;28;20027;-79
2022/09/23 06:23:50;;;;;;;22.30;11.32;;;;;;;22.48;42.15;97656.75;5093213;28;20048;-80
2022/09/23 06:26:16;;;;;;;16.35;10.43;;;;;;;22.77;41.44;97656.31;5081945;28;20030;-80
2022/09/23 06:28:43;;;;;;;17.40;10.23;;;;;;;22.54;41.52;97639.72;5093383;28;20487;-80
2022/09/23 06:31:14;;;;;;;20.92;10.68;;;;;;;22.49;41.42;97633.91;5095640;28;20100;-79
2022/09/23 06:33:41;;;;;;;15.32;10.27;;;;;;;22.25;42.32;97631.09;5094476;28;20052;-80
2022/09/23 06:36:07;;;;;;;18.58;12.13;;;;;;;22.57;42.18;97626.63;5093289;28;20194;-77
2022/09/23 06:38:33;;;;;;;17.23;10.63;;;;;;;22.69;41.98;97627.16;5081959;28;20027;-77
2022/09/23 06:40:59;;;;;;;18.98;11.20;;;;;;;22.75;41.75;97617.44;5083496;28;20026;-87
2022/09/23 06:43:25;;;;;;;19.23;11.48;;;;;;;22.43;42.48;97615.47;5092470;28;20023;-86
2022/09/23 06:45:56;;;;;;;22.30;10.75;;;;;;;23.02;41.58;97625.31;5112459;28;20027;-87
2022/09/23 06:48:23;;;;;;;27.35;14.43;;;;;;;22.60;41.72;97615.38;5092695;28;20469;-86
2022/09/23 06:50:49;;;;;;;23.05;11.40;;;;;;;23.18;41.57;97626.16;5097973;28;20028;-87
2022/09/23 06:53:16;;;;;;;18.60;10.95;;;;;;;23.06;41.82;97621.22;5101821;28;20402;-87
2022/09/23 06:55:43;;;;;;;19.33;9.20;;;;;;;23.63;40.75;97613.81;5098858;28;20027;-85
2022/09/23 06:58:09;;;;;;;12.73;8.50;;;;;;;24.77;38.46;97620.47;5087702;28;20031;-86
2022/09/23 07:00:35;;;;;;;15.15;8.80;;;;;;;24.86;38.29;97616.66;5105069;28;20039;-86
2022/09/23 07:03:01;;;;;;;16.98;8.57;;;;;;;23.84;39.38;97594.97;5094836;28;20083;-87
2022/09/23 07:05:26;;;;;;;12.73;8.88;;;;;;;23.91;39.52;97595.97;5094456;28;20019;-86
2022/09/23 07:07:54;;;;;;;13.02;8.30;;;;;;;24.53;39.17;97626.09;5080059;28;20019;-86
2022/09/23 07:10:20;;;;;;;18.23;8.27;;;;;;;25.37;37.98;97626.00;5080394;28;20517;-86
2022/09/23 07:12:46;;;;;;;19.27;8.85;;;;;;;25.55;37.22;97614.72;5107785;28;20012;-85
2022/09/23 07:15:11;;;;;;;20.63;9.85;;;;;;;25.83;36.75;97613.91;5115007;28;20019;-87
2022/09/23 07:17:40;;;;;;;19.10;8.88;;;;;;;25.46;37.24;97624.88;5099144;28;20034;-86
2022/09/23 07:20:06;;;;;;;15.40;8.25;;;;;;;25.45;36.77;97614.97;5098370;28;20032;-88
2022/09/23 07:22:32;;;;;;;10.57;7.57;;;;;;;24.53;38.11;97604.22;5082299;28;20114;-87
2022/09/23 07:24:57;;;;;;;14.73;8.27;;;;;;;24.95;37.96;97612.84;5109071;28;20058;-85
2022/09/23 07:27:24;;;;;;;14.55;8.90;;;;;;;24.69;38.55;97620.53;5097217;28;20019;-87
2022/09/23 07:29:50;;;;;;;12.60;7.80;;;;;;;25.46;36.90;97608.44;5092172;28;20012;-86
2022/09/23 07:32:17;;;;;;;12.13;7.30;;;;;;;26.48;35.80;97620.47;5090892;28;20070;-87
2022/09/23 07:34:43;;;;;;;12.20;7.22;;;;;;;27.15;34.56;97615.53;5114122;28;20019;-87
2022/09/23 07:37:09;;;;;;;13.27;7.18;;;;;;;27.48;34.04;97621.31;5080400;28;20027;-88
2022/09/23 07:39:38;;;;;;;11.02;7.65;;;;;;;26.25;35.07;97604.16;5114819;27;20024;-87
2022/09/23 07:42:04;;;;;;;16.48;8.85;;;;;;;25.93;35.31;97580.72;5081431;28;20081;-86
2022/09/23 07:44:31;;;;;;;22.17;8.23;;;;;;;26.50;34.78;97604.66;5104529;28;20178;-86
2022/09/23 07:46:58;;;;;;;14.77;8.20;;;;;;;26.82;34.14;97587.75;5113698;28;20028;-85
2022/09/23 07:49:27;;;;;;;13.25;7.88;;;;;;;27.50;33.78;97591.75;5079919;28;20027;-84
2022/09/23 07:51:53;;;;;;;17.58;7.85;;;;;;;28.23;32.35;97603.03;5080775;28;20035;-87
2022/09/23 07:54:19;;;;;;;9.82;5.32;;;;;;;28.62;31.78;97594.06;5096895;28;20095;-87
2022/09/23 07:56:45;;;;;;;12.25;5.47;;;;;;;28.55;30.73;97578.59;5113919;28;20087;-87
2022/09/23 07:59:17;;;;;;;7.10;3.75;;;;;;;28.50;29.71;97571.81;5114331;28;20105;-87
2022/09/23 08:01:45;;;;;;;5.07;3.58;;;;;;;28.88;29.62;97571.28;5113636;28;20086;-87
2022/09/23 08:04:26;;;;;;;6.90;2.95;;;;;;;28.23;29.27;97556.25;5098423;28;20529;-88
2022/09/23 08:06:58;;;;;;;5.10;2.88;;;;;;;27.80;29.55;97550.09;5113881;28;20028;-88
2022/09/23 08:09:26;;;;;;;5.88;2.60;;;;;;;27.99;29.24;97551.25;5080060;28;20054;-87
2022/09/23 08:11:52;;;;;;;8.35;1.80;;;;;;;27.11;29.91;97532.66;5097317;28;20031;-87
2022/09/23 08:14:18;;;;;;;3.63;2.60;;;;;;;28.52;28.61;97566.94;5096732;28;20490;-87
2022/09/23 08:16:45;;;;;;;7.00;2.70;;;;;;;28.72;28.13;97544.13;5079381;28;20042;-88
2022/09/23 08:19:12;;;;;;;2.33;2.10;;;;;;;28.25;28.36;97537.63;5079897;28;20055;-88
2022/09/23 08:21:39;;;;;;;2.88;2.15;;;;;;;28.48;28.16;97538.13;5130095;27;20074;-88
2022/09/23 08:24:06;;;;;;;2.20;1.45;;;;;;;29.16;27.92;97541.66;5116661;27;20048;-89
2022/09/23 08:26:40;;;;;;;1.58;1.38;;;;;;;29.76;26.94;97536.91;5091895;28;20084;-88
2022/09/23 08:29:08;;;;;;;3.72;1.40;;;;;;;29.83;26.52;97540.56;5098223;28;20439;-89
2022/09/23 08:32:00;;;;;;;2.15;1.55;;;;;;;29.86;26.52;97518.03;5085299;28;20028;-90
2022/09/23 08:34:27;;;;;;;1.83;1.52;;;;;;;30.21;26.57;97532.38;5092258;28;20122;-88
2022/09/23 08:37:23;;;;;;;3.63;1.77;;;;;;;31.23;25.58;97529.41;5105073;28;20099;-90
2022/09/23 08:40:17;;;;;;;1.80;1.50;;;;;;;30.16;26.36;97523.88;5113291;28;20073;-89
2022/09/23 08:42:47;;;;;;;3.05;1.92;;;;;;;29.67;26.88;97472.88;5081170;28;20413;-88
2022/09/23 08:45:23;;;;;;;6.13;2.40;;;;;;;30.62;26.01;97530.88;5067445;28;20075;-88
2022/09/23 08:48:16;;;;;;;4.28;2.83;;;;;;;29.92;26.47;97475.78;5087759;28;20082;-86
2022/09/23 08:50:51;;;;;;;3.70;1.83;;;;;;;30.57;26.19;97494.81;5081270;28;20507;-88
2022/09/23 08:53:26;;;;;;;2.58;1.70;;;;;;;31.01;25.51;97523.44;5112825;28;20107;-88
2022/09/23 08:55:54;;;;;;;1.83;1.50;;;;;;;30.05;26.08;97482.13;5079095;28;20064;-88
2022/09/23 08:58:46;;;;;;;6.90;1.70;;;;;;;28.99;27.05;97482.50;5104687;28;20028;-87
2022/09/23 09:01:26;;;;;;;5.07;1.73;;;;;;;28.29;27.14;97456.38;5120534;27;20036;-88
2022/09/23 09:04:04;;;;;;;3.10;1.20;;;;;;;29.25;26.57;97478.91;5103667;28;20028;-88
2022/09/23 09:06:38;;;;;;;1.42;1.00;;;;;;;29.34;26.19;97450.06;5088432;28;20498;-88
2022/09/23 09:09:08;;;;;;;3.83;1.58;;;;;;;29.44;26.04;97462.31;5112317;28;20118;-88
2022/09/23 09:11:36;;;;;;;3.40;1.48;;;;;;;30.13;25.85;97489.28;5107239;28;20027;-88
2022/09/23 09:14:01;;;;;;;7.38;3.08;;;;;;;30.05;26.46;97484.88;5112979;28;20036;-88
2022/09/23 09:16:56;;;;;;;3.25;1.90;;;;;;;31.18;24.38;97491.38;5126225;27;20119;-88
2022/09/23 09:19:37;;;;;;;3.92;2.00;;;;;;;32.09;24.12;97505.34;5116781;27;20505;-89
2022/09/23 09:22:04;;;;;;;5.40;2.07;;;;;;;30.92;25.25;97477.75;5123138;27;20482;-90
2022/09/23 09:24:33;;;;;;;2.78;1.95;;;;;;;30.44;25.60;97485.75;5092484;28;20052;-89
2022/09/23 09:27:00;;;;;;;4.75;1.88;;;;;;;30.32;25.53;97476.44;5097083;28;20087;-89
2022/09/23 09:29:31;;;;;;;2.20;1.65;;;;;;;27.97;27.73;97451.56;5113479;28;20049;-88
2022/09/23 09:31:58;;;;;;;9.75;1.67;;;;;;;25.97;30.10;97436.72;5097320;28;20031;-88
2022/09/23 09:34:52;;;;;;;;;;;;;;;;;;;;;
2022/09/23 09:37:31;;;;;;;3.35;2.25;;;;;;;26.45;31.37;97486.41;5107651;28;20099;-89
2022/09/23 09:39:57;;;;;;;2.08;1.70;;;;;;;28.02;29.05;97497.72;5096218;28;20514;-90
2022/09/23 09:42:40;;;;;;;3.72;1.60;;;;;;;29.44;27.43;97506.44;5098314;28;20032;-88
2022/09/23 09:45:26;;;;;;;1.85;1.45;;;;;;;29.68;26.52;97501.31;5096966;28;20032;-89
2022/09/23 09:48:10;;;;;;;2.83;1.30;;;;;;;29.07;26.91;97487.81;5113221;28;20039;-88
2022/09/23 09:50:43;;;;;;;3.05;1.58;;;;;;;27.33;29.32;97460.13;5113889;28;20032;-88
2022/09/23 09:53:34;;;;;;;4.20;1.77;;;;;;;26.01;30.21;97453.63;5131033;28;20126;-88
2022/09/23 09:56:05;;;;;;;2.10;1.70;;;;;;;24.51;32.25;97450.38;5112972;28;20043;-88
2022/09/23 09:58:50;;;;;;;1.55;1.20;;;;;;;23.36;33.27;97450.38;5130423;28;20087;-88
2022/09/23 10:01:31;;;;;;;10.02;5.30;;;;;;;23.08;34.30;97459.00;5088604;28;20123;-88
2022/09/23 10:03:59;;;;;;;1.90;1.35;;;;;;;24.92;31.78;97487.28;5113397;28;20041;-88
2022/09/23 10:06:31;;;;;;;2.00;1.80;;;;;;;26.27;29.88;97508.81;5096531;28;20023;-86
2022/09/23 10:09:14;;;;;;;;;;;;;;;28.42;27.48;97522.47;5113371;28;20019;-87
2022/09/23 10:11:40;;;;;;;2.85;1.23;;;;;;;29.74;26.74;97517.00;5095920;28;19912;-87
2022/09/23 10:14:18;;;;;;;6.90;3.72;;;;;;;31.40;25.25;97541.59;5112684;28;20084;-87
2022/09/23 10:17:04;;;;;;;3.75;1.58;;;;;;;29.76;26.21;97492.78;5113421;28;20038;-88
2022/09/23 10:19:30;;;;;;;12.13;3.58;;;;;;;27.80;28.08;97470.34;5093890;28;20062;-89
2022/09/23 10:21:59;;;;;;;5.07;2.10;;;;;;;26.19;29.82;97448.59;5100041;28;20027;-88
2022/09/23 10:24:35;;;;;;;1.60;1.50;;;;;;;24.49;32.01;97436.00;5101654;28;20051;-88
2022/09/23 10:27:08;;;;;;;4.05;2.00;;;;;;;23.41;33.50;97437.09;5087778;28;20023;-86
2022/09/23 10:29:39;;;;;;;4.18;1.58;;;;;;;22.60;35.11;97429.94;5106539;28;20066;-89
2022/09/23 10:32:27;;;;;;;3.97;1.70;;;;;;;22.39;36.00;97442.38;5100727;28;20032;-88
2022/09/23 10:35:12;;;;;;;2.50;1.70;;;;;;;21.89;36.32;97440.66;5132464;27;20019;-89
2022/09/23 10:37:42;;;;;;;2.40;1.60;;;;;;;21.23;37.63;97437.00;5086874;28;20081;-88
2022/09/23 10:46:37;;;;;;;22.02;15.40;;;;;;;28.11;27.78;97483.63;5116752;28;20449;-88
2022/09/23 10:49:11;;;;;;;1.80;1.30;;;;;;;29.32;26.73;97499.03;5085903;28;20028;-88
2022/09/23 10:51:48;;;;;;;1.35;1.10;;;;;;;30.77;24.87;97494.66;5127504;27;20084;-88
2022/09/23 10:54:30;;;;;;;2.72;2.45;;;;;;;31.90;23.91;97506.44;5123514;27;20049;-88
2022/09/23 10:56:58;;;;;;;3.58;1.20;;;;;;;29.90;25.51;97455.88;5104599;28;20063;-88
2022/09/23 10:59:40;;;;;;;2.00;1.75;;;;;;;27.93;27.84;97444.81;5099411;28;20027;-88
2022/09/23 11:02:17;;;;;;;2.15;1.27;;;;;;;25.82;29.18;97414.84;5109011;28;20063;-88
2022/09/23 11:04:53;;;;;;;5.22;1.35;;;;;;;24.30;31.86;97412.78;5081300;28;20040;-88
2022/09/23 11:07:34;;;;;;;3.88;1.33;;;;;;;23.36;33.65;97413.00;5091515;28;20032;-87
2022/09/23 11:10:30;;;;;;;2.08;1.17;;;;;;;25.00;31.92;97437.94;5077611;28;20054;-79
2022/09/23 11:13:08;;;;;;;3.20;1.20;;;;;;;28.07;28.25;97473.22;5089751;28;20032;-79
2022/09/23 11:15:53;;;;;;;5.03;1.40;;;;;;;29.84;26.39;97476.06;5074199;28;20020;-80
2022/09/23 11:18:41;;;;;;;13.75;3.92;;;;;;;31.81;24.32;97488.44;5096321;28;20486;-79
2022/09/23 11:21:13;;;;;;;1.45;1.35;;;;;;;29.15;25.81;97415.09;5105996;28;20024;-83
2022/09/23 11:23:44;;;;;;;3.85;1.35;;;;;;;26.73;28.79;97396.75;5129300;27;20036;-82
2022/09/23 11:26:30;;;;;;;1.13;0.93;;;;;;;26.91;28.09;97408.94;5114889;27;20144;-83
2022/09/23 11:29:05;;;;;;;4.22;1.73;;;;;;;28.45;26.97;97433.09;5115429;27;20501;-84
2022/09/23 11:32:05;;;;;;;1.52;1.00;;;;;;;27.72;27.70;97414.66;5115122;27;20046;-83
2022/09/23 11:34:58;;;;;;;4.95;1.00;;;;;;;28.86;26.10;97431.00;5116126;27;20058;-84
2022/09/23 11:37:27;;;;;;;1.30;0.90;;;;;;;28.87;26.39;97420.84;5102232;27;20030;-84
2022/09/23 11:40:12;;;;;;;2.78;1.00;;;;;;;29.81;25.05;97432.31;5100121;27;20046;-84
2022/09/23 11:42:49;;;;;;;0.73;0.73;;;;;;;30.08;24.99;97429.25;5099595;27;20090;-84
2022/09/23 11:45:20;;;;;;;12.57;2.05;;;;;;;30.52;24.09;97422.81;5098348;27;20042;-79
2022/09/23 11:47:53;;;;;;;1.35;0.93;;;;;;;28.33;26.52;97386.06;5115759;27;20034;-81
2022/09/23 11:50:19;;;;;;;2.33;1.65;;;;;;;26.97;28.24;97377.09;5098438;27;20035;-81
2022/09/23 11:52:52;;;;;;;1.35;1.17;;;;;;;25.27;29.24;97359.75;5134009;27;20037;-79
2022/09/23 11:55:21;;;;;;;4.00;1.33;;;;;;;24.11;31.31;97354.00;5115025;27;20117;-79
2022/09/23 11:57:56;;;;;;;4.90;1.67;;;;;;;23.18;32.58;97357.81;5091615;27;20031;-80
2022/09/23 12:00:33;;;;;;;2.63;1.65;;;;;;;23.25;32.63;97369.72;5132161;27;20117;-79
2022/09/23 12:03:22;;;;;;;3.35;1.33;;;;;;;24.45;30.92;97385.47;5115690;27;20379;-80
2022/09/23 12:06:12;;;;;;;3.58;1.10;;;;;;;27.03;28.03;97414.72;5086819;27;20031;-80